Time;durP1;ratioP1;P1;durP2;ratioP2;P2;SDS_P1;SDS_P2;PMS_P1;PMS_P2;Temp;Humidity;BMP_temperature;BMP_pressure;BME280_temperature;BME280_humidity;BME280_pressure;Samples;Min_cycle;Max_cycle;Signal;HPM_P1;HPM_P2
2023/08/20 00:01:29;;;;;;;;;;;;;;;23.11;58.43;101006.66;7398752;19;1846;-37
2023/08/20 00:03:58;;;;;;;;;;;;;;;23.10;58.57;100990.63;7400065;19;1214;-38
2023/08/20 00:06:27;;;;;;;;;;;;;;;23.09;58.45;100997.03;7397249;19;1338;-37
2023/08/20 00:08:57;;;;;;;;;;;;;;;23.12;58.39;100989.50;7399987;19;1391;-37
2023/08/20 00:11:26;;;;;;;;;;;;;;;23.09;58.23;100991.66;7399359;19;1319;-37
2023/08/20 00:13:54;;;;;;;;;;;;;;;23.14;58.45;100992.00;7399946;19;1359;-37
2023/08/20 00:16:23;;;;;;;;;;;;;;;23.06;57.32;100979.34;7400280;19;1105;-38
2023/08/20 00:18:51;;;;;;;;;;;;;;;22.97;56.84;100981.06;7398678;19;1179;-37
2023/08/20 00:21:20;;;;;;;;;;;;;;;22.94;57.35;100983.22;7398766;19;1854;-38
2023/08/20 00:23:49;;;;;;;;;;;;;;;23.03;57.52;100996.66;7398550;19;1461;-37
2023/08/20 00:26:20;;;;;;;;;;;;;;;23.00;57.74;100988.88;7398249;19;1534;-37
2023/08/20 00:28:48;;;;;;;;;;;;;;;23.05;57.93;100984.88;7398118;19;1967;-37
2023/08/20 00:31:17;;;;;;;;;;;;;;;23.14;57.85;100992.88;7398004;19;1311;-37
2023/08/20 00:33:45;;;;;;;;;;;;;;;23.07;57.98;100980.16;7397640;19;1529;-37
2023/08/20 00:36:14;;;;;;;;;;;;;;;23.08;58.38;100990.81;7399261;19;1170;-37
2023/08/20 00:38:42;;;;;;;;;;;;;;;23.15;58.09;100988.31;7397962;19;1351;-37
2023/08/20 00:41:10;;;;;;;;;;;;;;;23.07;58.36;100983.72;7397584;19;1337;-38
2023/08/20 00:43:41;;;;;;;;;;;;;;;23.11;58.41;100984.25;7397066;19;1854;-37
2023/08/20 00:46:09;;;;;;;;;;;;;;;23.12;58.07;100996.72;7397351;19;1276;-37
2023/08/20 00:48:38;;;;;;;;;;;;;;;23.11;58.29;100990.47;7397873;19;1410;-37
2023/08/20 00:51:06;;;;;;;;;;;;;;;23.03;58.19;100993.97;7397425;19;1260;-37
2023/08/20 00:53:34;;;;;;;;;;;;;;;22.99;57.22;101000.63;7396683;19;1437;-37
2023/08/20 00:56:03;;;;;;;;;;;;;;;22.93;56.67;101003.13;7396480;19;1365;-37
2023/08/20 00:58:31;;;;;;;;;;;;;;;22.88;57.36;101011.69;7396578;19;1411;-38
2023/08/20 01:01:02;;;;;;;;;;;;;;;22.97;57.60;101015.28;7396923;19;1301;-38
2023/08/20 01:03:30;;;;;;;;;;;;;;;23.09;57.63;101018.63;7394842;19;1846;-37
2023/08/20 01:06:04;;;;;;;;;;;;;;;23.00;57.76;101010.44;7397719;19;1028;-37
2023/08/20 01:08:39;;;;;;;;;;;;;;;23.05;57.81;101012.69;7397678;19;1199;-37
2023/08/20 01:11:12;;;;;;;;;;;;;;;22.99;57.84;101003.34;7396402;19;1397;-37
2023/08/20 01:13:41;;;;;;;;;;;;;;;23.05;57.93;100996.50;7396706;19;1281;-37
2023/08/20 01:16:12;;;;;;;;;;;;;;;23.05;58.22;100995.66;7396311;19;1452;-37
2023/08/20 01:18:40;;;;;;;;;;;;;;;23.00;58.19;101009.59;7395471;19;1206;-38
2023/08/20 01:21:14;;;;;;;;;;;;;;;22.97;58.33;100999.94;7396161;19;1449;-37
2023/08/20 01:23:59;;;;;;;;;;;;;;;22.99;58.45;101008.72;7395879;19;1844;-38
2023/08/20 01:26:42;;;;;;;;;;;;;;;23.04;58.40;101013.72;7395992;19;1378;-37
2023/08/20 01:29:14;;;;;;;;;;;;;;;23.07;58.23;101004.44;7395574;19;1319;-37
2023/08/20 01:31:42;;;;;;;;;;;;;;;23.00;57.00;100999.66;7397181;19;1221;-37
2023/08/20 01:34:10;;;;;;;;;;;;;;;22.92;56.40;101002.28;7396848;19;1214;-37
2023/08/20 01:36:40;;;;;;;;;;;;;;;22.84;57.52;101005.75;7397040;19;1350;-37
2023/08/20 01:39:09;;;;;;;;;;;;;;;22.89;57.73;101007.97;7395864;19;1521;-37
2023/08/20 01:41:37;;;;;;;;;;;;;;;22.92;57.62;101004.97;7395820;19;1846;-37
2023/08/20 01:44:06;;;;;;;;;;;;;;;22.95;58.11;101001.97;7396914;19;1597;-37
2023/08/20 01:46:36;;;;;;;;;;;;;;;22.98;58.03;100990.88;7396849;19;1389;-37
2023/08/20 01:49:05;;;;;;;;;;;;;;;22.99;58.01;100984.47;7396708;19;1418;-37
2023/08/20 01:51:33;;;;;;;;;;;;;;;23.03;58.13;100996.66;7395434;19;1971;-38
2023/08/20 01:54:02;;;;;;;;;;;;;;;22.95;58.18;101003.81;7396235;19;1280;-37
2023/08/20 01:56:30;;;;;;;;;;;;;;;23.00;58.15;100994.25;7395177;19;1272;-37
2023/08/20 01:58:58;;;;;;;;;;;;;;;23.05;58.22;101022.63;7395443;19;1526;-37
2023/08/20 02:01:27;;;;;;;;;;;;;;;23.00;58.44;100999.66;7395824;19;1236;-38
2023/08/20 02:03:58;;;;;;;;;;;;;;;23.02;58.13;101005.75;7393948;19;1834;-38
2023/08/20 02:06:26;;;;;;;;;;;;;;;23.00;58.42;101005.03;7395826;19;1348;-38
2023/08/20 02:08:54;;;;;;;;;;;;;;;22.47;56.71;100930.44;7396644;19;1087;-37
2023/08/20 02:11:23;;;;;;;;;;;;;;;22.86;56.86;101004.72;7396355;19;1339;-37
2023/08/20 02:13:51;;;;;;;;;;;;;;;22.86;57.29;101002.03;7396576;19;1153;-38
2023/08/20 02:16:20;;;;;;;;;;;;;;;22.89;57.32;101010.66;7396662;19;1948;-37
2023/08/20 02:18:48;;;;;;;;;;;;;;;22.89;57.79;100997.19;7395504;19;1344;-37
2023/08/20 02:21:19;;;;;;;;;;;;;;;22.91;57.93;101016.75;7395259;19;1406;-37
2023/08/20 02:23:47;;;;;;;;;;;;;;;22.91;57.69;100997.03;7393085;19;1871;-37
2023/08/20 02:26:15;;;;;;;;;;;;;;;22.94;57.78;101007.50;7395448;19;1242;-37
2023/08/20 02:28:44;;;;;;;;;;;;;;;22.94;57.78;100999.41;7394416;19;1198;-37
2023/08/20 02:31:12;;;;;;;;;;;;;;;22.93;58.26;100997.72;7401687;19;1383;-38
2023/08/20 02:33:40;;;;;;;;;;;;;;;22.90;58.21;101012.38;7403258;19;1322;-37
2023/08/20 02:36:09;;;;;;;;;;;;;;;22.91;58.15;101011.38;7402183;19;1155;-38
2023/08/20 02:38:40;;;;;;;;;;;;;;;22.96;58.11;101009.06;7401366;19;1234;-37
2023/08/20 02:41:08;;;;;;;;;;;;;;;22.88;58.34;101011.69;7403584;19;1139;-37
2023/08/20 02:43:36;;;;;;;;;;;;;;;22.87;58.28;100999.19;7400093;19;1846;-37
2023/08/20 02:46:05;;;;;;;;;;;;;;;22.86;57.10;101002.03;7402348;19;1437;-37
2023/08/20 02:48:33;;;;;;;;;;;;;;;22.78;56.36;101010.91;7401974;19;1222;-37
2023/08/20 02:51:02;;;;;;;;;;;;;;;22.77;57.29;101014.63;7402248;19;1254;-38
2023/08/20 02:53:30;;;;;;;;;;;;;;;22.75;57.32;101011.22;7401672;19;1217;-37
2023/08/20 02:56:03;;;;;;;;;;;;;;;22.81;57.63;101016.00;7401734;19;1462;-37
2023/08/20 02:58:31;;;;;;;;;;;;;;;22.79;57.90;101024.22;7400971;19;1265;-37
2023/08/20 03:01:00;;;;;;;;;;;;;;;22.80;57.92;101025.94;7401262;19;1347;-38
2023/08/20 03:03:28;;;;;;;;;;;;;;;22.98;56.96;101012.44;7399259;19;1865;-37
2023/08/20 03:05:56;;;;;;;;;;;;;;;23.31;55.43;101018.09;7400706;19;1437;-38
2023/08/20 03:08:25;;;;;;;;;;;;;;;23.52;54.71;101031.25;7402286;19;1095;-38
2023/08/20 03:10:53;;;;;;;;;;;;;;;23.57;54.37;101019.97;7400440;19;1732;-38
2023/08/20 03:13:24;;;;;;;;;;;;;;;23.61;54.04;101022.19;7400981;19;1194;-38
2023/08/20 03:15:53;;;;;;;;;;;;;;;23.66;53.61;101027.13;7400893;19;1410;-37
2023/08/20 03:18:21;;;;;;;;;;;;;;;23.68;53.53;101008.91;7401371;19;1296;-38
2023/08/20 03:20:49;;;;;;;;;;;;;;;23.67;53.46;101022.56;7400012;19;1257;-38
2023/08/20 03:23:18;;;;;;;;;;;;;;;23.60;53.71;101030.47;7397781;19;1857;-38
2023/08/20 03:25:46;;;;;;;;;;;;;;;23.45;54.13;101029.34;7401612;19;1261;-37
2023/08/20 03:28:14;;;;;;;;;;;;;;;23.37;54.41;101039.06;7399925;19;1883;-38
2023/08/20 03:30:45;;;;;;;;;;;;;;;23.37;54.21;101039.06;7401229;19;1410;-37
2023/08/20 03:33:13;;;;;;;;;;;;;;;23.36;53.96;101031.16;7398816;19;1529;-38
2023/08/20 03:35:42;;;;;;;;;;;;;;;23.61;53.23;101032.13;7400465;19;1249;-38
2023/08/20 03:38:10;;;;;;;;;;;;;;;23.68;52.99;101019.69;7401135;19;1448;-37
2023/08/20 03:40:41;;;;;;;;;;;;;;;23.73;52.62;101030.00;7397816;19;1451;-37
2023/08/20 03:43:09;;;;;;;;;;;;;;;23.77;52.47;101040.34;7396190;19;1851;-37
2023/08/20 03:45:38;;;;;;;;;;;;;;;23.76;52.07;101054.84;7401115;19;1528;-38
2023/08/20 03:48:09;;;;;;;;;;;;;;;23.74;52.32;101039.81;7400822;19;1865;-38
2023/08/20 03:50:37;;;;;;;;;;;;;;;23.77;52.37;101044.88;7400463;19;1102;-38
2023/08/20 03:53:05;;;;;;;;;;;;;;;23.74;52.25;101035.25;7399963;19;1350;-38
2023/08/20 03:55:34;;;;;;;;;;;;;;;23.73;52.27;101036.25;7400511;19;1280;-37
2023/08/20 03:58:02;;;;;;;;;;;;;;;23.78;52.38;101044.75;7396866;19;1277;-38
2023/08/20 04:00:30;;;;;;;;;;;;;;;23.78;52.18;101042.06;7399455;19;1438;-37
2023/08/20 04:02:59;;;;;;;;;;;;;;;23.82;52.40;101021.81;7397417;19;1845;-38
2023/08/20 04:05:30;;;;;;;;;;;;;;;23.84;52.00;101039.75;7398631;19;1405;-37
2023/08/20 04:07:58;;;;;;;;;;;;;;;23.84;51.96;101026.25;7398848;19;1463;-38
2023/08/20 04:10:26;;;;;;;;;;;;;;;23.86;52.06;101026.91;7398721;19;1332;-38
2023/08/20 04:12:52;;;;;;;;;;;;;;;23.87;51.86;101013.22;7398800;19;1357;-38
2023/08/20 04:15:20;;;;;;;;;;;;;;;23.91;51.98;101035.38;7398778;19;1319;-38
2023/08/20 04:17:48;;;;;;;;;;;;;;;23.86;52.20;101033.16;7398180;19;1181;-37
2023/08/20 04:20:17;;;;;;;;;;;;;;;23.96;52.29;101030.34;7397453;19;1961;-38
2023/08/20 04:22:48;;;;;;;;;;;;;;;24.27;51.09;101041.41;7397551;19;1867;-38
2023/08/20 04:25:17;;;;;;;;;;;;;;;24.61;50.57;101036.00;7399013;19;1273;-38
2023/08/20 04:27:45;;;;;;;;;;;;;;;24.84;50.28;101034.50;7397772;19;1439;-38
2023/08/20 04:30:14;;;;;;;;;;;;;;;25.62;48.39;101020.41;7399216;19;1397;-37
2023/08/20 04:32:42;;;;;;;;;;;;;;;26.08;47.32;101020.59;7398493;19;1346;-38
2023/08/20 04:35:11;;;;;;;;;;;;;;;26.12;47.45;101027.38;7398470;19;1234;-38
2023/08/20 04:37:39;;;;;;;;;;;;;;;25.80;48.04;101037.31;7399301;19;1353;-38
2023/08/20 04:40:12;;;;;;;;;;;;;;;25.37;48.79;101031.28;7398781;19;1222;-38
2023/08/20 04:42:40;;;;;;;;;;;;;;;24.98;49.65;101029.25;7397821;19;1857;-38
2023/08/20 04:45:10;;;;;;;;;;;;;;;24.75;50.62;101033.63;7398974;19;1365;-38
2023/08/20 04:47:38;;;;;;;;;;;;;;;24.73;50.38;101041.06;7398234;19;1557;-38
2023/08/20 04:50:07;;;;;;;;;;;;;;;24.69;50.61;101042.41;7399119;19;1138;-38
2023/08/20 04:52:36;;;;;;;;;;;;;;;24.75;50.84;101041.72;7397547;19;1127;-38
2023/08/20 04:55:04;;;;;;;;;;;;;;;24.68;50.91;101032.63;7398047;19;1413;-38
2023/08/20 04:57:35;;;;;;;;;;;;;;;24.64;51.22;101033.97;7396862;19;1285;-38
2023/08/20 05:00:03;;;;;;;;;;;;;;;24.54;51.37;101026.84;7397001;19;1464;-38
2023/08/20 05:02:32;;;;;;;;;;;;;;;24.45;51.76;101033.19;7398081;19;1386;-38
2023/08/20 05:05:00;;;;;;;;;;;;;;;24.39;51.94;101039.25;7395301;19;1841;-38
2023/08/20 05:07:28;;;;;;;;;;;;;;;24.31;52.10;101032.00;7396051;19;1298;-37
2023/08/20 05:09:57;;;;;;;;;;;;;;;24.28;52.53;101032.31;7397516;19;1253;-38
2023/08/20 05:12:31;;;;;;;;;;;;;;;24.41;52.41;101037.25;7175540;19;9999668;-38
2023/08/20 05:15:01;;;;;;;;;;;;;;;24.55;52.36;101039.34;7384273;19;1461;-38
2023/08/20 05:17:30;;;;;;;;;;;;;;;24.80;52.14;101036.69;7388092;19;1417;-38
2023/08/20 05:19:58;;;;;;;;;;;;;;;24.73;52.34;101033.81;7379998;19;1934;-38
2023/08/20 05:22:26;;;;;;;;;;;;;;;24.72;52.03;101037.50;7388605;19;1456;-38
2023/08/20 05:24:55;;;;;;;;;;;;;;;24.60;52.57;101042.38;7389612;19;1868;-38
2023/08/20 05:27:23;;;;;;;;;;;;;;;24.80;52.45;101037.53;7390203;19;1451;-40
2023/08/20 05:29:51;;;;;;;;;;;;;;;24.87;52.26;101043.13;7384178;19;1444;-41
2023/08/20 05:32:22;;;;;;;;;;;;;;;24.91;52.45;101036.38;7386996;19;1535;-38
2023/08/20 05:34:50;;;;;;;;;;;;;;;24.83;53.06;101047.19;7381001;19;1441;-38
2023/08/20 05:37:19;;;;;;;;;;;;;;;24.84;53.08;101051.56;7389310;19;1545;-38
2023/08/20 05:39:47;;;;;;;;;;;;;;;24.91;52.88;101052.59;7386136;19;1649;-40
2023/08/20 05:42:15;;;;;;;;;;;;;;;24.96;52.99;101031.28;7389057;19;1467;-40
2023/08/20 05:44:44;;;;;;;;;;;;;;;24.90;53.43;101029.25;7386100;19;1849;-40
2023/08/20 05:47:12;;;;;;;;;;;;;;;24.96;53.13;101046.66;7387899;19;1625;-40
2023/08/20 05:49:43;;;;;;;;;;;;;;;25.06;53.05;101047.34;7389335;19;1996;-40
2023/08/20 05:52:12;;;;;;;;;;;;;;;25.16;52.82;101041.75;7389585;19;1522;-40
2023/08/20 05:54:40;;;;;;;;;;;;;;;25.22;52.88;101030.28;7387531;19;1557;-40
2023/08/20 05:57:08;;;;;;;;;;;;;;;25.29;52.71;101044.84;7388596;19;1857;-40
2023/08/20 05:59:37;;;;;;;;;;;;;;;25.23;52.94;101042.81;7387615;19;1419;-40
2023/08/20 06:02:06;;;;;;;;;;;;;;;25.25;53.25;101043.50;7388138;19;1430;-40
2023/08/20 06:04:34;;;;;;;;;;;;;;;25.23;53.06;101048.22;7384685;19;1845;-40
2023/08/20 06:07:05;;;;;;;;;;;;;;;24.86;53.32;100976.50;7388361;19;1545;-40
2023/08/20 06:09:33;;;;;;;;;;;;;;;25.34;53.25;101028.91;7387456;19;1868;-40
2023/08/20 06:12:01;;;;;;;;;;;;;;;25.43;52.94;101040.59;7389273;19;1450;-40
2023/08/20 06:14:30;;;;;;;;;;;;;;;25.58;52.59;101035.31;7386123;19;2267;-40
2023/08/20 06:16:58;;;;;;;;;;;;;;;25.53;52.77;101037.72;7387476;19;1380;-40
2023/08/20 06:19:26;;;;;;;;;;;;;;;25.53;52.63;101021.47;7389642;19;1419;-40
2023/08/20 06:21:55;;;;;;;;;;;;;;;25.64;52.51;101026.50;7388377;19;1477;-40
2023/08/20 06:24:26;;;;;;;;;;;;;;;25.22;52.48;100992.41;7386259;19;1855;-40
2023/08/20 06:26:54;;;;;;;;;;;;;;;25.42;53.93;101035.34;7384731;19;1247;-38
2023/08/20 06:29:23;;;;;;;;;;;;;;;25.44;53.75;101034.16;7389210;19;1037;-38
2023/08/20 06:31:51;;;;;;;;;;;;;;;25.44;53.48;101019.78;7391907;19;1287;-38
2023/08/20 06:34:19;;;;;;;;;;;;;;;25.63;53.04;101029.41;7392771;19;1240;-37
2023/08/20 06:36:48;;;;;;;;;;;;;;;25.95;52.55;101031.19;7392771;19;1406;-38
2023/08/20 06:39:16;;;;;;;;;;;;;;;25.97;52.52;101023.72;7393278;19;1442;-38
2023/08/20 06:41:47;;;;;;;;;;;;;;;25.80;53.68;101029.19;7393496;19;1284;-38
2023/08/20 06:44:15;;;;;;;;;;;;;;;25.57;55.63;101023.63;7392973;19;1877;-38
2023/08/20 06:46:44;;;;;;;;;;;;;;;25.67;54.41;101022.59;7391882;19;1190;-38
2023/08/20 06:49:12;;;;;;;;;;;;;;;25.92;53.93;101043.19;7392506;19;1859;-37
2023/08/20 06:51:40;;;;;;;;;;;;;;;26.09;54.16;101019.59;7394109;19;1293;-38
2023/08/20 06:54:09;;;;;;;;;;;;;;;25.88;55.15;101030.16;7393063;19;1507;-38
2023/08/20 06:56:37;;;;;;;;;;;;;;;25.75;55.60;101045.09;7393746;19;1082;-38
2023/08/20 06:59:10;;;;;;;;;;;;;;;25.94;54.90;101051.16;7392348;19;1203;-38
2023/08/20 07:01:38;;;;;;;;;;;;;;;25.96;54.47;101031.00;7391579;19;1496;-38
2023/08/20 07:04:07;;;;;;;;;;;;;;;26.05;54.29;101022.84;7390592;19;1841;-37
2023/08/20 07:06:35;;;;;;;;;;;;;;;26.05;55.16;101030.97;7389741;19;1746;-38
2023/08/20 07:09:03;;;;;;;;;;;;;;;25.89;56.27;101037.28;7392340;19;1284;-37
2023/08/20 07:11:32;;;;;;;;;;;;;;;25.73;55.68;101047.13;7391337;19;1187;-37
2023/08/20 07:14:00;;;;;;;;;;;;;;;25.75;55.66;101053.22;7392529;19;1202;-38
2023/08/20 07:16:31;;;;;;;;;;;;;;;25.68;56.48;101044.09;7395212;19;1377;-37
2023/08/20 07:18:59;;;;;;;;;;;;;;;25.59;56.05;101045.13;7399582;19;1281;-40
2023/08/20 07:21:27;;;;;;;;;;;;;;;25.64;56.34;101028.34;7399775;19;1406;-37
2023/08/20 07:23:56;;;;;;;;;;;;;;;25.60;56.80;101039.56;7398181;19;1845;-38
2023/08/20 07:26:24;;;;;;;;;;;;;;;25.58;56.64;101038.03;7398012;19;1319;-38
2023/08/20 07:29:02;;;;;;;;;;;;;;;25.59;56.77;101040.56;7396701;19;1350;-38
2023/08/20 07:31:33;;;;;;;;;;;;;;;25.59;56.18;101029.72;7396286;19;1569;-38
2023/08/20 07:34:02;;;;;;;;;;;;;;;25.62;56.08;101042.06;7396319;19;1202;-37
2023/08/20 07:36:31;;;;;;;;;;;;;;;25.64;56.94;101031.06;7397433;19;1242;-37
2023/08/20 07:38:59;;;;;;;;;;;;;;;25.62;56.80;101047.47;7397978;19;1354;-38
2023/08/20 07:41:27;;;;;;;;;;;;;;;25.88;55.99;101024.72;7398293;19;1329;-38
2023/08/20 07:43:56;;;;;;;;;;;;;;;25.80;56.75;101034.59;7396700;19;1853;-38
2023/08/20 07:46:24;;;;;;;;;;;;;;;25.72;57.44;101036.47;7392593;19;1181;-37
2023/08/20 07:48:55;;;;;;;;;;;;;;;25.62;57.45;101043.94;7385103;19;1548;-37
2023/08/20 07:51:23;;;;;;;;;;;;;;;25.55;58.76;101020.25;7392481;19;1646;-37
2023/08/20 07:53:51;;;;;;;;;;;;;;;25.74;57.90;101039.84;7392030;19;1357;-37
2023/08/20 07:56:20;;;;;;;;;;;;;;;25.80;58.35;101029.19;7397132;19;1698;-38
2023/08/20 07:58:48;;;;;;;;;;;;;;;25.73;59.13;101028.16;7398141;19;1771;-37
2023/08/20 08:01:17;;;;;;;;;;;;;;;25.80;59.13;101018.34;7398500;19;1345;-38
2023/08/20 08:03:48;;;;;;;;;;;;;;;25.82;60.00;101020.00;7396511;19;2032;-38
2023/08/20 08:06:19;;;;;;;;;;;;;;;25.87;60.11;101015.75;7399018;19;1339;-38
2023/08/20 08:08:49;;;;;;;;;;;;;;;26.03;59.08;101023.00;7395420;19;1595;-37
2023/08/20 08:11:17;;;;;;;;;;;;;;;26.16;59.92;101022.44;7393336;19;1761;-38
2023/08/20 08:13:45;;;;;;;;;;;;;;;26.07;59.05;101021.63;7394375;19;1458;-37
2023/08/20 08:16:14;;;;;;;;;;;;;;;25.87;60.67;101010.34;7393847;19;1365;-37
2023/08/20 08:18:42;;;;;;;;;;;;;;;25.90;60.40;101015.44;7392374;19;1459;-37
2023/08/20 08:21:10;;;;;;;;;;;;;;;26.03;60.44;101012.16;7392882;19;1294;-38
2023/08/20 08:23:41;;;;;;;;;;;;;;;26.03;60.64;101006.75;7392679;19;1447;-38
2023/08/20 08:26:09;;;;;;;;;;;;;;;26.08;60.57;101000.78;7389855;19;1868;-37
2023/08/20 08:28:38;;;;;;;;;;;;;;;26.01;61.48;101008.78;7394722;19;1270;-38
2023/08/20 08:31:06;;;;;;;;;;;;;;;25.13;63.75;101012.34;7396755;19;1305;-37
2023/08/20 08:33:34;;;;;;;;;;;;;;;24.62;62.04;101007.09;7396856;19;1682;-37
2023/08/20 08:36:02;;;;;;;;;;;;;;;24.37;61.03;101004.31;7396140;19;1455;-37
2023/08/20 08:38:31;;;;;;;;;;;;;;;24.26;60.32;101003.78;7396602;19;1357;-37
2023/08/20 08:41:02;;;;;;;;;;;;;;;24.17;60.10;101005.59;7397562;19;1522;-37
2023/08/20 08:43:31;;;;;;;;;;;;;;;24.07;59.71;100997.59;7397099;19;1703;-37
2023/08/20 08:46:00;;;;;;;;;;;;;;;24.02;59.60;101006.22;7394697;19;1984;-37
2023/08/20 08:48:28;;;;;;;;;;;;;;;23.97;59.03;100986.09;7395389;19;1638;-37
2023/08/20 08:50:57;;;;;;;;;;;;;;;23.95;59.01;101001.63;7396149;19;1542;-37
2023/08/20 08:53:27;;;;;;;;;;;;;;;23.92;59.09;101004.66;7396850;19;1261;-37
2023/08/20 08:55:55;;;;;;;;;;;;;;;23.92;59.34;100988.47;7396213;19;1322;-37
2023/08/20 08:58:26;;;;;;;;;;;;;;;24.37;58.25;100981.81;7397089;19;1289;-38
2023/08/20 09:00:55;;;;;;;;;;;;;;;24.53;58.11;100992.72;7395448;19;1368;-38
2023/08/20 09:03:24;;;;;;;;;;;;;;;24.72;57.84;100996.09;7396710;19;1499;-37
2023/08/20 09:05:53;;;;;;;;;;;;;;;24.94;57.68;101000.84;7394925;19;1861;-37
2023/08/20 09:08:22;;;;;;;;;;;;;;;24.99;58.13;100981.41;7397915;19;1568;-37
2023/08/20 09:10:52;;;;;;;;;;;;;;;25.18;58.16;100996.44;7396929;19;1181;-37
2023/08/20 09:13:20;;;;;;;;;;;;;;;25.26;57.29;100991.03;7396615;19;1422;-38
2023/08/20 09:15:53;;;;;;;;;;;;;;;25.28;58.17;100989.00;7396457;19;1229;-38
2023/08/20 09:18:21;;;;;;;;;;;;;;;25.26;58.44;100972.09;7397004;19;1489;-38
2023/08/20 09:20:50;;;;;;;;;;;;;;;25.30;58.03;100984.25;7398641;19;1272;-37
2023/08/20 09:23:19;;;;;;;;;;;;;;;25.34;58.88;100980.19;7394776;19;1427;-37
2023/08/20 09:25:47;;;;;;;;;;;;;;;25.44;58.00;100987.28;7395701;19;1843;-37
2023/08/20 09:28:16;;;;;;;;;;;;;;;25.49;58.59;100968.66;7395996;19;1234;-37
2023/08/20 09:31:01;;;;;;;;;;;;;;;25.60;57.88;100965.56;7397035;19;1467;-37
2023/08/20 09:33:29;;;;;;;;;;;;;;;25.55;58.01;100962.56;7394949;19;1377;-37
2023/08/20 09:35:58;;;;;;;;;;;;;;;25.62;58.63;100952.69;7394478;19;1356;-37
2023/08/20 09:38:26;;;;;;;;;;;;;;;25.58;59.01;100960.31;7395809;19;1418;-37
2023/08/20 09:40:56;;;;;;;;;;;;;;;25.73;58.41;100967.75;7396657;19;1218;-37
2023/08/20 09:43:27;;;;;;;;;;;;;;;25.71;58.77;100956.25;7395189;19;1626;-37
2023/08/20 09:46:02;;;;;;;;;;;;;;;25.88;58.08;100965.13;7394815;19;1858;-37
2023/08/20 09:48:35;;;;;;;;;;;;;;;25.93;58.56;100951.94;7394601;19;1471;-38
2023/08/20 09:51:06;;;;;;;;;;;;;;;26.08;57.46;100974.53;7389282;19;1563;-37
2023/08/20 09:53:36;;;;;;;;;;;;;;;26.05;57.85;100958.63;7394444;19;1366;-38
2023/08/20 09:56:09;;;;;;;;;;;;;;;26.03;58.07;100947.13;7395656;19;1566;-37
2023/08/20 09:58:38;;;;;;;;;;;;;;;25.62;57.79;100941.88;7395600;19;1289;-37
2023/08/20 10:01:09;;;;;;;;;;;;;;;25.66;57.17;100951.31;7395512;19;1369;-41
2023/08/20 10:03:39;;;;;;;;;;;;;;;25.90;56.94;100944.13;7395853;19;1356;-38
2023/08/20 10:06:09;;;;;;;;;;;;;;;25.64;58.55;100936.28;7393336;19;1844;-37
2023/08/20 10:08:37;;;;;;;;;;;;;;;25.66;58.52;100921.53;7395541;19;1471;-37
2023/08/20 10:11:05;;;;;;;;;;;;;;;25.72;57.96;100926.25;7395800;19;1630;-38
2023/08/20 10:13:34;;;;;;;;;;;;;;;25.82;57.93;100944.16;7395913;19;1340;-37
2023/08/20 10:16:02;;;;;;;;;;;;;;;25.76;57.81;100941.13;7394974;19;1376;-37
2023/08/20 10:18:33;;;;;;;;;;;;;;;25.75;58.01;100944.88;7394718;19;1586;-37
2023/08/20 10:21:03;;;;;;;;;;;;;;;25.74;57.92;100943.16;7393586;19;1488;-37
2023/08/20 10:23:31;;;;;;;;;;;;;;;25.74;58.03;100953.16;7395123;19;1432;-37
2023/08/20 10:26:09;;;;;;;;;;;;;;;25.42;58.36;100872.91;7394689;19;1834;-41
2023/08/20 10:28:37;;;;;;;;;;;;;;;25.84;58.80;100937.53;7393720;19;1677;-37
2023/08/20 10:31:06;;;;;;;;;;;;;;;26.05;58.76;100920.69;7394062;19;1209;-37
2023/08/20 10:33:37;;;;;;;;;;;;;;;25.92;58.96;100920.44;7391470;19;1600;-40
2023/08/20 10:36:13;;;;;;;;;;;;;;;26.01;58.24;100923.97;7390674;19;1599;-41
2023/08/20 10:38:41;;;;;;;;;;;;;;;25.92;58.34;100925.84;7391109;19;1514;-40
2023/08/20 10:41:10;;;;;;;;;;;;;;;25.86;59.14;100934.66;7393194;19;1515;-40
2023/08/20 10:43:40;;;;;;;;;;;;;;;25.63;59.98;100930.03;7391998;19;1173;-40
2023/08/20 10:46:26;;;;;;;;;;;;;;;25.69;59.15;100913.06;7389299;19;1853;-40
2023/08/20 10:48:58;;;;;;;;;;;;;;;25.42;58.54;100914.34;7392197;19;2231;-40
2023/08/20 10:51:27;;;;;;;;;;;;;;;25.08;58.49;100911.88;7397576;19;1564;-40
2023/08/20 10:54:05;;;;;;;;;;;;;;;25.28;59.60;100890.72;7395721;19;1523;-40
2023/08/20 10:56:46;;;;;;;;;;;;;;;25.62;59.81;100895.00;7396385;19;1429;-40
2023/08/20 10:59:16;;;;;;;;;;;;;;;25.67;60.15;100915.09;7399724;19;1297;-40
2023/08/20 11:01:46;;;;;;;;;;;;;;;26.00;59.23;100882.44;7398765;19;1277;-37
2023/08/20 11:04:17;;;;;;;;;;;;;;;26.06;58.78;100902.56;7396016;19;1469;-37
2023/08/20 11:06:46;;;;;;;;;;;;;;;25.93;58.70;100886.91;7395977;19;1861;-37
2023/08/20 11:09:15;;;;;;;;;;;;;;;25.96;58.91;100879.28;7401118;19;1318;-37
2023/08/20 11:11:43;;;;;;;;;;;;;;;26.02;58.72;100887.69;7401503;19;1410;-38
2023/08/20 11:14:14;;;;;;;;;;;;;;;25.55;59.82;100894.84;7399747;19;1158;-38
2023/08/20 11:16:43;;;;;;;;;;;;;;;24.87;61.72;100907.88;7400984;19;1386;-37
2023/08/20 11:19:11;;;;;;;;;;;;;;;24.61;60.97;100889.97;7399043;19;1465;-37
2023/08/20 11:21:43;;;;;;;;;;;;;;;24.58;60.67;100881.34;7386945;19;1430;-37
2023/08/20 11:24:12;;;;;;;;;;;;;;;24.58;60.37;100882.19;7400484;19;1426;-37
2023/08/20 11:26:41;;;;;;;;;;;;;;;24.55;60.49;100893.34;7398524;19;1851;-37
2023/08/20 11:29:10;;;;;;;;;;;;;;;24.46;61.05;100870.00;7401028;19;1147;-37
2023/08/20 11:31:39;;;;;;;;;;;;;;;24.48;60.83;100873.38;7400436;19;1828;-37
2023/08/20 11:34:08;;;;;;;;;;;;;;;24.53;60.67;100852.13;7401149;19;1410;-37
2023/08/20 11:36:37;;;;;;;;;;;;;;;24.43;61.08;100864.91;7399758;19;1340;-38
2023/08/20 11:39:09;;;;;;;;;;;;;;;24.45;60.77;100865.59;7399627;19;1278;-37
2023/08/20 11:41:39;;;;;;;;;;;;;;;24.52;60.64;100833.38;7397795;19;1185;-38
2023/08/20 11:44:07;;;;;;;;;;;;;;;24.46;60.57;100855.66;7398864;19;1210;-38
2023/08/20 11:46:36;;;;;;;;;;;;;;;24.30;61.19;100856.50;7397846;19;1859;-37
2023/08/20 11:49:05;;;;;;;;;;;;;;;24.41;60.09;100848.03;7398839;19;1320;-37
2023/08/20 11:51:37;;;;;;;;;;;;;;;24.30;60.47;100834.88;7398865;19;1440;-37
2023/08/20 11:54:10;;;;;;;;;;;;;;;24.30;60.40;100830.31;7400441;19;1236;-37
2023/08/20 11:56:39;;;;;;;;;;;;;;;24.24;60.85;100832.84;7398780;19;1272;-38
2023/08/20 11:59:12;;;;;;;;;;;;;;;24.29;60.54;100816.94;7398318;19;1447;-37
2023/08/20 12:01:41;;;;;;;;;;;;;;;24.41;59.88;100831.81;7396540;19;1393;-37
2023/08/20 12:04:10;;;;;;;;;;;;;;;24.44;59.93;100822.53;7397999;19;1132;-37
2023/08/20 12:06:39;;;;;;;;;;;;;;;24.39;59.79;100823.03;7394548;19;1851;-37
2023/08/20 12:09:23;;;;;;;;;;;;;;;24.41;59.80;100810.19;7395774;19;1217;-38
2023/08/20 12:11:55;;;;;;;;;;;;;;;24.24;61.12;100820.16;7397861;19;1225;-37
2023/08/20 12:14:24;;;;;;;;;;;;;;;24.23;60.47;100813.06;7397121;19;1635;-38
2023/08/20 12:16:53;;;;;;;;;;;;;;;24.30;60.07;100797.03;7394898;19;1236;-37
2023/08/20 12:19:21;;;;;;;;;;;;;;;24.38;60.27;100803.28;7396862;19;1531;-37
2023/08/20 12:21:53;;;;;;;;;;;;;;;24.32;60.61;100801.25;7023922;19;10000369;-37
2023/08/20 12:24:21;;;;;;;;;;;;;;;24.34;60.61;100809.19;7384065;19;1550;-37
2023/08/20 12:26:49;;;;;;;;;;;;;;;24.30;60.32;100789.75;7389964;19;1853;-37
2023/08/20 12:29:20;;;;;;;;;;;;;;;24.32;60.39;100789.59;7388750;19;1617;-37
2023/08/20 12:31:48;;;;;;;;;;;;;;;24.27;61.08;100791.97;7389043;19;1572;-37
2023/08/20 12:34:17;;;;;;;;;;;;;;;24.21;61.21;100788.94;7389189;19;1465;-37
2023/08/20 12:36:45;;;;;;;;;;;;;;;24.29;60.57;100781.81;7389718;19;1395;-38
2023/08/20 12:39:14;;;;;;;;;;;;;;;24.31;59.88;100793.31;7389875;19;1240;-39
2023/08/20 12:41:42;;;;;;;;;;;;;;;24.29;59.56;100800.72;7389027;19;2063;-37
2023/08/20 12:44:11;;;;;;;;;;;;;;;24.24;59.45;100787.75;7389766;19;1455;-37
2023/08/20 12:46:42;;;;;;;;;;;;;;;24.18;59.55;100785.72;7386778;19;1857;-37
2023/08/20 12:49:10;;;;;;;;;;;;;;;24.09;59.24;100789.44;7390285;19;1523;-37
2023/08/20 12:51:38;;;;;;;;;;;;;;;24.05;59.14;100779.97;7391013;19;1430;-37
2023/08/20 12:54:07;;;;;;;;;;;;;;;23.90;59.23;100787.91;7390869;19;1502;-38
2023/08/20 12:56:35;;;;;;;;;;;;;;;23.83;59.50;100785.00;7390402;19;1198;-37